Portsmouth, Virginia
Current Conditions -  °F | °C
As of 10:59 AM on Thursday 23 Oct 2014 (Local Time) from KNGU Reporting Station
Few Clouds Few Clouds  
Wind Chill: 62°   Ceiling: Unl
Heat Index: 62°   Visibility: 10mi
Dew Point: 45°   Wind: 21mph
Humidity: 53%   Direction: 310°NW
Pressure: 29.9"   Gusts: 29mph
Location:  36.83°N, 76.3°W
Report Text: KNGU 231459Z 31018G25KT 10SM FEW025 FEW060 17/07 A2990 RMK AO2 SLP125 PK WND 30028/1434 T01670072 58003 $
Loading
Personal Weather Stations






























Interactive Weather Map
Tropical Storm Tracking
New forecast layout! Learn more

10-Day Weather Forecast

Advertisements
Track Severe Weather on mobile